sensor_id;sensor_type;location;lat;lon;timestamp;P1;durP1;ratioP1;P2;durP2;ratioP2
52848;SDS011;38714;53.180;5.812;2023-02-28T00:00:11;4.85;;;2.20;;
52848;SDS011;38714;53.180;5.812;2023-02-28T00:02:41;4.65;;;2.63;;
52848;SDS011;38714;53.180;5.812;2023-02-28T00:05:09;3.15;;;2.30;;
52848;SDS011;38714;53.180;5.812;2023-02-28T00:07:35;6.10;;;2.15;;
52848;SDS011;38714;53.180;5.812;2023-02-28T00:10:02;4.75;;;3.20;;
52848;SDS011;38714;53.180;5.812;2023-02-28T00:12:29;3.92;;;2.05;;
52848;SDS011;38714;53.180;5.812;2023-02-28T00:14:54;5.22;;;2.35;;
52848;SDS011;38714;53.180;5.812;2023-02-28T00:17:20;6.15;;;2.95;;
52848;SDS011;38714;53.180;5.812;2023-02-28T00:19:50;3.88;;;2.38;;
52848;SDS011;38714;53.180;5.812;2023-02-28T00:22:19;3.75;;;3.00;;
52848;SDS011;38714;53.180;5.812;2023-02-28T00:24:46;2.83;;;1.33;;
52848;SDS011;38714;53.180;5.812;2023-02-28T00:27:12;5.03;;;2.30;;
52848;SDS011;38714;53.180;5.812;2023-02-28T00:29:39;2.95;;;1.67;;
52848;SDS011;38714;53.180;5.812;2023-02-28T00:32:05;3.08;;;2.15;;
52848;SDS011;38714;53.180;5.812;2023-02-28T00:34:31;3.20;;;1.98;;
52848;SDS011;38714;53.180;5.812;2023-02-28T00:37:02;10.98;;;2.88;;
52848;SDS011;38714;53.180;5.812;2023-02-28T00:39:33;4.20;;;2.63;;
52848;SDS011;38714;53.180;5.812;2023-02-28T00:42:01;2.00;;;1.42;;
52848;SDS011;38714;53.180;5.812;2023-02-28T00:44:27;3.85;;;1.80;;
52848;SDS011;38714;53.180;5.812;2023-02-28T00:46:53;6.05;;;2.08;;
52848;SDS011;38714;53.180;5.812;2023-02-28T00:49:20;3.63;;;1.92;;
52848;SDS011;38714;53.180;5.812;2023-02-28T00:51:46;5.43;;;3.22;;
52848;SDS011;38714;53.180;5.812;2023-02-28T00:54:11;3.47;;;2.40;;
52848;SDS011;38714;53.180;5.812;2023-02-28T00:56:37;7.65;;;3.38;;
52848;SDS011;38714;53.180;5.812;2023-02-28T00:59:03;3.70;;;3.35;;
52848;SDS011;38714;53.180;5.812;2023-02-28T01:01:28;4.68;;;3.47;;
52848;SDS011;38714;53.180;5.812;2023-02-28T01:03:54;9.35;;;3.00;;
52848;SDS011;38714;53.180;5.812;2023-02-28T01:06:20;6.40;;;2.45;;
52848;SDS011;38714;53.180;5.812;2023-02-28T01:08:45;4.95;;;3.33;;
52848;SDS011;38714;53.180;5.812;2023-02-28T01:11:11;3.05;;;2.15;;
52848;SDS011;38714;53.180;5.812;2023-02-28T01:13:39;5.03;;;3.35;;
52848;SDS011;38714;53.180;5.812;2023-02-28T01:16:05;5.72;;;2.15;;
52848;SDS011;38714;53.180;5.812;2023-02-28T01:18:31;2.38;;;2.17;;
52848;SDS011;38714;53.180;5.812;2023-02-28T01:20:57;4.75;;;2.75;;
52848;SDS011;38714;53.180;5.812;2023-02-28T01:23:23;12.27;;;2.38;;
52848;SDS011;38714;53.180;5.812;2023-02-28T01:25:49;3.92;;;2.03;;
52848;SDS011;38714;53.180;5.812;2023-02-28T01:28:16;3.47;;;1.40;;
52848;SDS011;38714;53.180;5.812;2023-02-28T01:30:41;5.10;;;3.45;;
52848;SDS011;38714;53.180;5.812;2023-02-28T01:33:07;3.00;;;2.67;;
52848;SDS011;38714;53.180;5.812;2023-02-28T01:35:33;5.82;;;2.25;;
52848;SDS011;38714;53.180;5.812;2023-02-28T01:38:00;1.90;;;1.55;;
52848;SDS011;38714;53.180;5.812;2023-02-28T01:40:26;7.93;;;2.35;;
52848;SDS011;38714;53.180;5.812;2023-02-28T01:42:52;2.10;;;1.90;;
52848;SDS011;38714;53.180;5.812;2023-02-28T01:45:28;2.15;;;1.48;;
52848;SDS011;38714;53.180;5.812;2023-02-28T01:48:00;6.47;;;3.47;;
52848;SDS011;38714;53.180;5.812;2023-02-28T01:50:30;12.98;;;2.35;;
52848;SDS011;38714;53.180;5.812;2023-02-28T01:53:00;2.95;;;1.38;;
52848;SDS011;38714;53.180;5.812;2023-02-28T01:55:27;3.20;;;2.08;;
52848;SDS011;38714;53.180;5.812;2023-02-28T01:57:55;1.73;;;1.38;;
52848;SDS011;38714;53.180;5.812;2023-02-28T02:00:23;6.10;;;2.10;;
52848;SDS011;38714;53.180;5.812;2023-02-28T02:02:53;10.27;;;2.92;;
52848;SDS011;38714;53.180;5.812;2023-02-28T02:05:22;14.32;;;2.70;;
52848;SDS011;38714;53.180;5.812;2023-02-28T02:07:50;7.93;;;2.60;;
52848;SDS011;38714;53.180;5.812;2023-02-28T02:10:36;2.45;;;1.98;;
52848;SDS011;38714;53.180;5.812;2023-02-28T02:34:50;4.82;;;1.80;;
52848;SDS011;38714;53.180;5.812;2023-02-28T02:37:38;3.35;;;1.90;;
52848;SDS011;38714;53.180;5.812;2023-02-28T02:40:11;5.10;;;1.92;;
52848;SDS011;38714;53.180;5.812;2023-02-28T02:42:55;4.90;;;2.20;;
52848;SDS011;38714;53.180;5.812;2023-02-28T02:48:18;3.53;;;2.30;;
52848;SDS011;38714;53.180;5.812;2023-02-28T02:50:50;3.00;;;2.33;;
52848;SDS011;38714;53.180;5.812;2023-02-28T02:53:21;3.78;;;1.92;;
52848;SDS011;38714;53.180;5.812;2023-02-28T02:55:52;6.93;;;2.55;;
52848;SDS011;38714;53.180;5.812;2023-02-28T02:58:20;2.53;;;1.63;;
52848;SDS011;38714;53.180;5.812;2023-02-28T03:00:50;2.85;;;1.73;;
52848;SDS011;38714;53.180;5.812;2023-02-28T03:03:19;2.78;;;1.73;;
52848;SDS011;38714;53.180;5.812;2023-02-28T03:05:54;2.70;;;1.63;;
52848;SDS011;38714;53.180;5.812;2023-02-28T03:08:24;4.78;;;2.28;;
52848;SDS011;38714;53.180;5.812;2023-02-28T03:10:51;9.25;;;2.47;;
52848;SDS011;38714;53.180;5.812;2023-02-28T03:13:42;3.10;;;2.58;;
52848;SDS011;38714;53.180;5.812;2023-02-28T03:22:06;3.40;;;1.95;;
52848;SDS011;38714;53.180;5.812;2023-02-28T03:24:50;3.35;;;2.63;;
52848;SDS011;38714;53.180;5.812;2023-02-28T03:27:22;9.68;;;2.30;;
52848;SDS011;38714;53.180;5.812;2023-02-28T03:30:16;4.03;;;2.50;;
52848;SDS011;38714;53.180;5.812;2023-02-28T03:35:19;4.70;;;2.35;;
52848;SDS011;38714;53.180;5.812;2023-02-28T03:37:49;3.58;;;1.92;;
52848;SDS011;38714;53.180;5.812;2023-02-28T03:40:21;4.72;;;2.33;;
52848;SDS011;38714;53.180;5.812;2023-02-28T03:42:51;2.40;;;1.95;;
52848;SDS011;38714;53.180;5.812;2023-02-28T03:45:23;2.40;;;1.98;;
52848;SDS011;38714;53.180;5.812;2023-02-28T03:50:34;33.45;;;4.68;;
52848;SDS011;38714;53.180;5.812;2023-02-28T03:53:06;5.85;;;2.70;;
52848;SDS011;38714;53.180;5.812;2023-02-28T03:55:40;3.65;;;1.85;;
52848;SDS011;38714;53.180;5.812;2023-02-28T03:58:27;3.55;;;1.63;;
52848;SDS011;38714;53.180;5.812;2023-02-28T04:01:20;14.02;;;2.67;;
52848;SDS011;38714;53.180;5.812;2023-02-28T04:04:08;2.63;;;1.85;;
52848;SDS011;38714;53.180;5.812;2023-02-28T04:06:34;3.75;;;1.45;;
52848;SDS011;38714;53.180;5.812;2023-02-28T04:09:00;3.58;;;1.67;;
52848;SDS011;38714;53.180;5.812;2023-02-28T04:11:31;3.33;;;2.90;;
52848;SDS011;38714;53.180;5.812;2023-02-28T04:13:57;2.20;;;1.42;;
52848;SDS011;38714;53.180;5.812;2023-02-28T04:16:23;8.27;;;2.60;;
52848;SDS011;38714;53.180;5.812;2023-02-28T04:18:49;3.05;;;1.70;;
52848;SDS011;38714;53.180;5.812;2023-02-28T04:21:14;3.75;;;2.55;;
52848;SDS011;38714;53.180;5.812;2023-02-28T04:23:40;2.28;;;1.58;;
52848;SDS011;38714;53.180;5.812;2023-02-28T04:26:05;2.55;;;1.60;;
52848;SDS011;38714;53.180;5.812;2023-02-28T04:28:31;10.35;;;2.63;;
52848;SDS011;38714;53.180;5.812;2023-02-28T04:30:59;4.85;;;2.33;;
52848;SDS011;38714;53.180;5.812;2023-02-28T04:33:26;8.88;;;2.30;;
52848;SDS011;38714;53.180;5.812;2023-02-28T04:36:03;5.03;;;1.95;;
52848;SDS011;38714;53.180;5.812;2023-02-28T04:38:35;8.98;;;4.68;;
52848;SDS011;38714;53.180;5.812;2023-02-28T04:41:02;5.47;;;2.17;;
52848;SDS011;38714;53.180;5.812;2023-02-28T04:43:28;5.85;;;2.60;;
52848;SDS011;38714;53.180;5.812;2023-02-28T04:45:55;8.68;;;4.03;;
52848;SDS011;38714;53.180;5.812;2023-02-28T04:48:25;6.25;;;2.90;;
52848;SDS011;38714;53.180;5.812;2023-02-28T04:50:53;5.27;;;2.73;;
52848;SDS011;38714;53.180;5.812;2023-02-28T04:53:19;6.05;;;3.65;;
52848;SDS011;38714;53.180;5.812;2023-02-28T04:55:45;13.85;;;4.10;;
52848;SDS011;38714;53.180;5.812;2023-02-28T04:58:11;7.22;;;3.35;;
52848;SDS011;38714;53.180;5.812;2023-02-28T05:00:37;6.00;;;3.17;;
52848;SDS011;38714;53.180;5.812;2023-02-28T05:03:03;6.07;;;3.67;;
52848;SDS011;38714;53.180;5.812;2023-02-28T05:05:29;9.52;;;3.00;;
52848;SDS011;38714;53.180;5.812;2023-02-28T05:07:54;2.38;;;1.98;;
52848;SDS011;38714;53.180;5.812;2023-02-28T05:10:21;6.35;;;2.67;;
52848;SDS011;38714;53.180;5.812;2023-02-28T05:12:47;6.65;;;2.63;;
52848;SDS011;38714;53.180;5.812;2023-02-28T05:15:14;7.53;;;3.15;;
52848;SDS011;38714;53.180;5.812;2023-02-28T05:17:40;5.30;;;2.58;;
52848;SDS011;38714;53.180;5.812;2023-02-28T05:20:06;7.68;;;2.60;;
52848;SDS011;38714;53.180;5.812;2023-02-28T05:22:35;1.95;;;1.33;;
52848;SDS011;38714;53.180;5.812;2023-02-28T05:25:02;3.70;;;2.00;;
52848;SDS011;38714;53.180;5.812;2023-02-28T05:27:29;3.75;;;2.03;;
52848;SDS011;38714;53.180;5.812;2023-02-28T05:29:55;5.68;;;1.98;;
52848;SDS011;38714;53.180;5.812;2023-02-28T05:32:21;3.97;;;2.00;;
52848;SDS011;38714;53.180;5.812;2023-02-28T05:34:46;1.45;;;0.95;;
52848;SDS011;38714;53.180;5.812;2023-02-28T05:37:12;1.70;;;1.30;;
52848;SDS011;38714;53.180;5.812;2023-02-28T05:39:38;4.13;;;1.92;;
52848;SDS011;38714;53.180;5.812;2023-02-28T05:42:04;2.90;;;1.75;;
52848;SDS011;38714;53.180;5.812;2023-02-28T05:44:30;3.25;;;1.90;;
52848;SDS011;38714;53.180;5.812;2023-02-28T05:46:56;5.40;;;1.90;;
52848;SDS011;38714;53.180;5.812;2023-02-28T05:49:21;2.67;;;1.45;;
52848;SDS011;38714;53.180;5.812;2023-02-28T05:51:47;3.53;;;1.70;;
52848;SDS011;38714;53.180;5.812;2023-02-28T05:54:12;2.25;;;1.92;;
52848;SDS011;38714;53.180;5.812;2023-02-28T05:56:38;3.03;;;1.63;;
52848;SDS011;38714;53.180;5.812;2023-02-28T05:59:05;7.28;;;2.95;;
52848;SDS011;38714;53.180;5.812;2023-02-28T06:03:59;2.83;;;2.60;;
52848;SDS011;38714;53.180;5.812;2023-02-28T06:06:25;3.38;;;3.08;;
52848;SDS011;38714;53.180;5.812;2023-02-28T06:08:51;2.55;;;1.98;;
52848;SDS011;38714;53.180;5.812;2023-02-28T06:11:20;13.20;;;3.47;;
52848;SDS011;38714;53.180;5.812;2023-02-28T06:13:46;3.97;;;3.00;;
52848;SDS011;38714;53.180;5.812;2023-02-28T06:16:12;7.32;;;3.75;;
52848;SDS011;38714;53.180;5.812;2023-02-28T06:18:38;8.32;;;4.90;;
52848;SDS011;38714;53.180;5.812;2023-02-28T06:21:04;8.32;;;4.00;;
52848;SDS011;38714;53.180;5.812;2023-02-28T06:23:30;6.38;;;4.88;;
52848;SDS011;38714;53.180;5.812;2023-02-28T06:25:55;7.15;;;4.43;;
52848;SDS011;38714;53.180;5.812;2023-02-28T06:28:23;5.03;;;3.58;;
52848;SDS011;38714;53.180;5.812;2023-02-28T06:30:50;8.05;;;3.78;;
52848;SDS011;38714;53.180;5.812;2023-02-28T06:33:16;5.15;;;3.35;;
52848;SDS011;38714;53.180;5.812;2023-02-28T06:35:43;4.53;;;2.95;;
52848;SDS011;38714;53.180;5.812;2023-02-28T06:38:11;3.45;;;2.95;;
52848;SDS011;38714;53.180;5.812;2023-02-28T06:40:36;4.25;;;3.05;;
52848;SDS011;38714;53.180;5.812;2023-02-28T06:43:02;4.32;;;3.70;;
52848;SDS011;38714;53.180;5.812;2023-02-28T06:45:28;4.30;;;3.22;;
52848;SDS011;38714;53.180;5.812;2023-02-28T06:47:54;4.72;;;3.67;;
52848;SDS011;38714;53.180;5.812;2023-02-28T06:50:20;4.82;;;4.25;;
52848;SDS011;38714;53.180;5.812;2023-02-28T06:52:46;4.55;;;3.92;;
52848;SDS011;38714;53.180;5.812;2023-02-28T06:55:12;4.28;;;3.88;;
52848;SDS011;38714;53.180;5.812;2023-02-28T06:57:37;4.43;;;4.03;;
52848;SDS011;38714;53.180;5.812;2023-02-28T07:00:05;4.38;;;3.92;;
52848;SDS011;38714;53.180;5.812;2023-02-28T07:02:34;4.88;;;4.40;;
52848;SDS011;38714;53.180;5.812;2023-02-28T07:05:00;7.90;;;5.28;;
52848;SDS011;38714;53.180;5.812;2023-02-28T07:07:26;7.30;;;4.43;;
52848;SDS011;38714;53.180;5.812;2023-02-28T07:09:52;8.32;;;5.70;;
52848;SDS011;38714;53.180;5.812;2023-02-28T07:12:17;9.07;;;6.80;;
52848;SDS011;38714;53.180;5.812;2023-02-28T07:14:43;11.75;;;8.55;;
52848;SDS011;38714;53.180;5.812;2023-02-28T07:17:09;7.72;;;5.22;;
52848;SDS011;38714;53.180;5.812;2023-02-28T07:19:37;8.27;;;5.70;;
52848;SDS011;38714;53.180;5.812;2023-02-28T07:22:03;8.70;;;6.55;;
52848;SDS011;38714;53.180;5.812;2023-02-28T07:24:29;7.75;;;5.15;;
52848;SDS011;38714;53.180;5.812;2023-02-28T07:26:55;15.93;;;6.07;;
52848;SDS011;38714;53.180;5.812;2023-02-28T07:29:20;7.68;;;5.50;;
52848;SDS011;38714;53.180;5.812;2023-02-28T07:31:46;7.35;;;5.03;;
52848;SDS011;38714;53.180;5.812;2023-02-28T07:34:12;6.70;;;5.63;;
52848;SDS011;38714;53.180;5.812;2023-02-28T07:36:38;9.95;;;6.25;;
52848;SDS011;38714;53.180;5.812;2023-02-28T07:39:04;7.13;;;4.88;;
52848;SDS011;38714;53.180;5.812;2023-02-28T07:41:30;7.72;;;5.18;;
52848;SDS011;38714;53.180;5.812;2023-02-28T07:43:58;8.63;;;5.18;;
52848;SDS011;38714;53.180;5.812;2023-02-28T07:46:24;10.07;;;6.97;;
52848;SDS011;38714;53.180;5.812;2023-02-28T07:48:51;7.82;;;6.85;;
52848;SDS011;38714;53.180;5.812;2023-02-28T07:51:17;8.98;;;6.20;;
52848;SDS011;38714;53.180;5.812;2023-02-28T07:53:43;11.00;;;6.78;;
52848;SDS011;38714;53.180;5.812;2023-02-28T07:56:09;8.35;;;6.13;;
52848;SDS011;38714;53.180;5.812;2023-02-28T07:58:35;8.60;;;6.63;;
52848;SDS011;38714;53.180;5.812;2023-02-28T08:01:05;12.55;;;8.05;;
52848;SDS011;38714;53.180;5.812;2023-02-28T08:03:33;9.07;;;7.95;;
52848;SDS011;38714;53.180;5.812;2023-02-28T08:05:58;9.48;;;7.13;;
52848;SDS011;38714;53.180;5.812;2023-02-28T08:08:24;11.52;;;7.47;;
52848;SDS011;38714;53.180;5.812;2023-02-28T08:10:54;7.97;;;7.18;;
52848;SDS011;38714;53.180;5.812;2023-02-28T08:13:19;7.68;;;6.95;;
52848;SDS011;38714;53.180;5.812;2023-02-28T08:15:45;10.18;;;7.93;;
52848;SDS011;38714;53.180;5.812;2023-02-28T08:18:12;8.70;;;6.28;;
52848;SDS011;38714;53.180;5.812;2023-02-28T08:20:37;7.93;;;6.85;;
52848;SDS011;38714;53.180;5.812;2023-02-28T08:23:03;11.25;;;8.13;;
52848;SDS011;38714;53.180;5.812;2023-02-28T08:25:28;11.35;;;8.27;;
52848;SDS011;38714;53.180;5.812;2023-02-28T08:27:54;12.18;;;8.80;;
52848;SDS011;38714;53.180;5.812;2023-02-28T08:30:20;12.40;;;8.55;;
52848;SDS011;38714;53.180;5.812;2023-02-28T08:32:45;11.73;;;8.60;;
52848;SDS011;38714;53.180;5.812;2023-02-28T08:35:11;8.52;;;7.13;;
52848;SDS011;38714;53.180;5.812;2023-02-28T08:37:36;9.77;;;7.10;;
52848;SDS011;38714;53.180;5.812;2023-02-28T08:40:02;15.90;;;8.57;;
52848;SDS011;38714;53.180;5.812;2023-02-28T08:42:32;10.45;;;7.40;;
52848;SDS011;38714;53.180;5.812;2023-02-28T08:44:57;10.07;;;7.18;;
52848;SDS011;38714;53.180;5.812;2023-02-28T08:47:23;10.82;;;7.38;;
52848;SDS011;38714;53.180;5.812;2023-02-28T08:49:49;12.95;;;8.63;;
52848;SDS011;38714;53.180;5.812;2023-02-28T08:52:14;12.27;;;8.70;;
52848;SDS011;38714;53.180;5.812;2023-02-28T08:54:40;9.98;;;7.22;;
52848;SDS011;38714;53.180;5.812;2023-02-28T08:57:06;9.88;;;7.80;;
52848;SDS011;38714;53.180;5.812;2023-02-28T08:59:31;9.77;;;7.70;;
52848;SDS011;38714;53.180;5.812;2023-02-28T09:01:57;11.65;;;7.18;;
52848;SDS011;38714;53.180;5.812;2023-02-28T09:04:23;11.05;;;6.90;;
52848;SDS011;38714;53.180;5.812;2023-02-28T09:06:48;16.05;;;8.52;;
52848;SDS011;38714;53.180;5.812;2023-02-28T09:09:14;11.15;;;8.70;;
52848;SDS011;38714;53.180;5.812;2023-02-28T09:11:40;10.45;;;6.53;;
52848;SDS011;38714;53.180;5.812;2023-02-28T09:14:06;11.02;;;7.32;;
52848;SDS011;38714;53.180;5.812;2023-02-28T09:16:32;8.23;;;6.75;;
52848;SDS011;38714;53.180;5.812;2023-02-28T09:19:00;9.98;;;6.32;;
52848;SDS011;38714;53.180;5.812;2023-02-28T09:21:25;11.20;;;8.80;;
52848;SDS011;38714;53.180;5.812;2023-02-28T09:23:52;9.75;;;7.80;;
52848;SDS011;38714;53.180;5.812;2023-02-28T09:26:19;7.97;;;6.65;;
52848;SDS011;38714;53.180;5.812;2023-02-28T09:28:50;9.27;;;7.68;;
52848;SDS011;38714;53.180;5.812;2023-02-28T09:31:17;10.52;;;7.25;;
52848;SDS011;38714;53.180;5.812;2023-02-28T09:33:46;11.73;;;8.73;;
52848;SDS011;38714;53.180;5.812;2023-02-28T09:36:12;17.23;;;9.35;;
52848;SDS011;38714;53.180;5.812;2023-02-28T09:38:38;10.93;;;8.50;;
52848;SDS011;38714;53.180;5.812;2023-02-28T09:41:10;11.23;;;7.40;;
52848;SDS011;38714;53.180;5.812;2023-02-28T09:43:49;11.15;;;8.30;;
52848;SDS011;38714;53.180;5.812;2023-02-28T09:46:25;14.75;;;8.88;;
52848;SDS011;38714;53.180;5.812;2023-02-28T09:49:04;15.18;;;10.23;;
52848;SDS011;38714;53.180;5.812;2023-02-28T09:54:14;15.30;;;8.65;;
52848;SDS011;38714;53.180;5.812;2023-02-28T09:56:45;8.38;;;7.00;;
52848;SDS011;38714;53.180;5.812;2023-02-28T09:59:24;14.02;;;9.27;;
52848;SDS011;38714;53.180;5.812;2023-02-28T10:04:56;12.68;;;8.45;;
52848;SDS011;38714;53.180;5.812;2023-02-28T10:07:37;11.30;;;8.68;;
52848;SDS011;38714;53.180;5.812;2023-02-28T10:10:32;16.25;;;7.30;;
52848;SDS011;38714;53.180;5.812;2023-02-28T10:13:04;14.60;;;8.60;;
52848;SDS011;38714;53.180;5.812;2023-02-28T10:15:38;11.13;;;7.75;;
52848;SDS011;38714;53.180;5.812;2023-02-28T10:18:04;9.15;;;7.20;;
52848;SDS011;38714;53.180;5.812;2023-02-28T10:20:35;14.70;;;9.23;;
52848;SDS011;38714;53.180;5.812;2023-02-28T10:23:10;8.73;;;6.20;;
52848;SDS011;38714;53.180;5.812;2023-02-28T10:25:41;8.35;;;6.70;;
52848;SDS011;38714;53.180;5.812;2023-02-28T10:28:16;9.35;;;7.03;;
52848;SDS011;38714;53.180;5.812;2023-02-28T10:30:49;11.57;;;6.35;;
52848;SDS011;38714;53.180;5.812;2023-02-28T10:33:18;11.20;;;7.82;;
52848;SDS011;38714;53.180;5.812;2023-02-28T10:35:47;8.45;;;6.88;;
52848;SDS011;38714;53.180;5.812;2023-02-28T10:38:19;16.38;;;7.88;;
52848;SDS011;38714;53.180;5.812;2023-02-28T10:40:48;10.77;;;6.68;;
52848;SDS011;38714;53.180;5.812;2023-02-28T10:43:17;11.38;;;6.40;;
52848;SDS011;38714;53.180;5.812;2023-02-28T10:46:18;15.40;;;5.93;;
52848;SDS011;38714;53.180;5.812;2023-02-28T10:48:41;8.43;;;5.95;;
52848;SDS011;38714;53.180;5.812;2023-02-28T10:51:16;6.63;;;5.22;;
52848;SDS011;38714;53.180;5.812;2023-02-28T10:53:53;4.97;;;4.28;;
52848;SDS011;38714;53.180;5.812;2023-02-28T10:56:21;6.95;;;6.13;;
52848;SDS011;38714;53.180;5.812;2023-02-28T10:59:02;7.85;;;5.60;;
52848;SDS011;38714;53.180;5.812;2023-02-28T11:01:47;4.80;;;3.85;;
52848;SDS011;38714;53.180;5.812;2023-02-28T11:04:20;5.85;;;4.65;;
52848;SDS011;38714;53.180;5.812;2023-02-28T11:07:17;9.70;;;4.32;;
52848;SDS011;38714;53.180;5.812;2023-02-28T11:09:53;4.22;;;3.83;;
52848;SDS011;38714;53.180;5.812;2023-02-28T11:12:37;7.20;;;3.90;;
52848;SDS011;38714;53.180;5.812;2023-02-28T11:15:26;6.45;;;4.43;;
52848;SDS011;38714;53.180;5.812;2023-02-28T11:20:37;7.25;;;4.07;;
52848;SDS011;38714;53.180;5.812;2023-02-28T11:23:04;4.97;;;3.72;;
52848;SDS011;38714;53.180;5.812;2023-02-28T11:25:36;4.05;;;3.60;;
52848;SDS011;38714;53.180;5.812;2023-02-28T11:28:03;4.15;;;3.05;;
52848;SDS011;38714;53.180;5.812;2023-02-28T11:30:41;6.15;;;3.28;;
52848;SDS011;38714;53.180;5.812;2023-02-28T11:33:25;4.38;;;3.30;;
52848;SDS011;38714;53.180;5.812;2023-02-28T11:36:25;3.65;;;3.05;;
52848;SDS011;38714;53.180;5.812;2023-02-28T11:38:51;3.30;;;2.40;;
52848;SDS011;38714;53.180;5.812;2023-02-28T11:47:22;3.75;;;3.35;;
52848;SDS011;38714;53.180;5.812;2023-02-28T11:55:26;4.57;;;3.15;;
52848;SDS011;38714;53.180;5.812;2023-02-28T12:03:43;15.93;;;4.22;;
52848;SDS011;38714;53.180;5.812;2023-02-28T12:11:52;5.25;;;4.28;;
52848;SDS011;38714;53.180;5.812;2023-02-28T12:25:36;3.10;;;2.50;;
52848;SDS011;38714;53.180;5.812;2023-02-28T12:28:29;3.42;;;3.10;;
52848;SDS011;38714;53.180;5.812;2023-02-28T12:31:00;3.83;;;2.80;;
52848;SDS011;38714;53.180;5.812;2023-02-28T12:33:46;5.63;;;3.65;;
52848;SDS011;38714;53.180;5.812;2023-02-28T12:36:16;6.88;;;2.85;;
52848;SDS011;38714;53.180;5.812;2023-02-28T12:41:27;10.95;;;3.40;;
52848;SDS011;38714;53.180;5.812;2023-02-28T12:44:02;4.93;;;3.80;;
52848;SDS011;38714;53.180;5.812;2023-02-28T12:46:37;5.57;;;3.53;;
52848;SDS011;38714;53.180;5.812;2023-02-28T12:49:15;2.63;;;2.40;;
52848;SDS011;38714;53.180;5.812;2023-02-28T12:51:46;2.30;;;1.90;;
52848;SDS011;38714;53.180;5.812;2023-02-28T12:54:14;4.80;;;2.72;;
52848;SDS011;38714;53.180;5.812;2023-02-28T12:57:31;4.38;;;3.42;;
52848;SDS011;38714;53.180;5.812;2023-02-28T13:02:33;2.30;;;2.17;;
52848;SDS011;38714;53.180;5.812;2023-02-28T13:10:48;6.22;;;3.70;;
52848;SDS011;38714;53.180;5.812;2023-02-28T13:13:26;2.75;;;2.55;;
52848;SDS011;38714;53.180;5.812;2023-02-28T13:16:01;3.15;;;2.60;;
52848;SDS011;38714;53.180;5.812;2023-02-28T13:18:32;3.03;;;2.28;;
52848;SDS011;38714;53.180;5.812;2023-02-28T13:20:58;3.65;;;3.35;;
52848;SDS011;38714;53.180;5.812;2023-02-28T13:26:12;5.18;;;3.25;;
52848;SDS011;38714;53.180;5.812;2023-02-28T13:31:24;4.38;;;2.65;;
52848;SDS011;38714;53.180;5.812;2023-02-28T13:36:25;4.43;;;2.72;;
52848;SDS011;38714;53.180;5.812;2023-02-28T13:38:55;4.07;;;3.38;;
52848;SDS011;38714;53.180;5.812;2023-02-28T13:44:01;3.95;;;3.20;;
52848;SDS011;38714;53.180;5.812;2023-02-28T14:02:43;4.18;;;2.53;;
52848;SDS011;38714;53.180;5.812;2023-02-28T14:05:25;7.60;;;2.60;;
52848;SDS011;38714;53.180;5.812;2023-02-28T14:07:56;5.00;;;3.80;;
52848;SDS011;38714;53.180;5.812;2023-02-28T14:10:33;5.32;;;2.75;;
52848;SDS011;38714;53.180;5.812;2023-02-28T14:13:11;6.53;;;3.40;;
52848;SDS011;38714;53.180;5.812;2023-02-28T14:16:01;3.45;;;3.05;;
52848;SDS011;38714;53.180;5.812;2023-02-28T14:18:33;5.35;;;3.83;;
52848;SDS011;38714;53.180;5.812;2023-02-28T14:21:22;3.58;;;3.25;;
52848;SDS011;38714;53.180;5.812;2023-02-28T14:26:55;5.32;;;3.40;;
52848;SDS011;38714;53.180;5.812;2023-02-28T14:29:41;5.20;;;2.95;;
52848;SDS011;38714;53.180;5.812;2023-02-28T14:34:53;3.35;;;2.55;;
52848;SDS011;38714;53.180;5.812;2023-02-28T14:37:32;3.50;;;3.20;;
52848;SDS011;38714;53.180;5.812;2023-02-28T14:40:02;8.48;;;3.97;;
52848;SDS011;38714;53.180;5.812;2023-02-28T14:42:33;3.83;;;3.17;;
52848;SDS011;38714;53.180;5.812;2023-02-28T14:45:03;6.65;;;3.22;;
52848;SDS011;38714;53.180;5.812;2023-02-28T14:47:32;4.45;;;3.55;;
52848;SDS011;38714;53.180;5.812;2023-02-28T14:50:00;4.38;;;3.40;;
52848;SDS011;38714;53.180;5.812;2023-02-28T14:52:29;3.58;;;3.28;;
52848;SDS011;38714;53.180;5.812;2023-02-28T14:54:58;4.93;;;3.95;;
52848;SDS011;38714;53.180;5.812;2023-02-28T14:57:27;4.47;;;3.72;;
52848;SDS011;38714;53.180;5.812;2023-02-28T15:00:03;2.40;;;2.20;;
52848;SDS011;38714;53.180;5.812;2023-02-28T15:02:30;5.13;;;4.38;;
52848;SDS011;38714;53.180;5.812;2023-02-28T15:05:47;4.53;;;2.75;;
52848;SDS011;38714;53.180;5.812;2023-02-28T15:08:00;5.53;;;3.38;;
52848;SDS011;38714;53.180;5.812;2023-02-28T15:10:51;3.67;;;3.38;;
52848;SDS011;38714;53.180;5.812;2023-02-28T15:13:19;5.80;;;3.78;;
52848;SDS011;38714;53.180;5.812;2023-02-28T15:15:55;8.77;;;3.97;;
52848;SDS011;38714;53.180;5.812;2023-02-28T15:18:31;7.95;;;4.05;;
52848;SDS011;38714;53.180;5.812;2023-02-28T15:21:01;3.50;;;3.05;;
52848;SDS011;38714;53.180;5.812;2023-02-28T15:23:30;6.25;;;3.92;;
52848;SDS011;38714;53.180;5.812;2023-02-28T15:25:57;4.72;;;3.15;;
52848;SDS011;38714;53.180;5.812;2023-02-28T15:28:23;19.15;;;3.90;;
52848;SDS011;38714;53.180;5.812;2023-02-28T15:30:57;4.00;;;2.55;;
52848;SDS011;38714;53.180;5.812;2023-02-28T15:33:28;3.63;;;2.72;;
52848;SDS011;38714;53.180;5.812;2023-02-28T15:38:40;5.65;;;3.83;;
52848;SDS011;38714;53.180;5.812;2023-02-28T15:41:20;3.63;;;2.67;;
52848;SDS011;38714;53.180;5.812;2023-02-28T15:44:13;4.90;;;3.00;;
52848;SDS011;38714;53.180;5.812;2023-02-28T15:47:01;4.70;;;4.22;;
52848;SDS011;38714;53.180;5.812;2023-02-28T15:49:39;2.70;;;2.50;;
52848;SDS011;38714;53.180;5.812;2023-02-28T15:52:11;5.63;;;4.20;;
52848;SDS011;38714;53.180;5.812;2023-02-28T15:54:40;3.95;;;3.33;;
52848;SDS011;38714;53.180;5.812;2023-02-28T15:57:10;4.07;;;3.67;;
52848;SDS011;38714;53.180;5.812;2023-02-28T15:59:42;4.75;;;3.03;;
52848;SDS011;38714;53.180;5.812;2023-02-28T16:02:20;4.22;;;3.58;;
52848;SDS011;38714;53.180;5.812;2023-02-28T16:07:26;5.10;;;3.33;;
52848;SDS011;38714;53.180;5.812;2023-02-28T16:09:52;6.72;;;3.53;;
52848;SDS011;38714;53.180;5.812;2023-02-28T16:12:19;6.82;;;4.30;;
52848;SDS011;38714;53.180;5.812;2023-02-28T16:14:46;5.60;;;5.10;;
52848;SDS011;38714;53.180;5.812;2023-02-28T16:17:18;5.50;;;4.50;;
52848;SDS011;38714;53.180;5.812;2023-02-28T16:19:46;4.90;;;4.22;;
52848;SDS011;38714;53.180;5.812;2023-02-28T16:22:12;4.75;;;3.47;;
52848;SDS011;38714;53.180;5.812;2023-02-28T16:24:37;5.93;;;4.97;;
52848;SDS011;38714;53.180;5.812;2023-02-28T16:27:04;6.28;;;4.25;;
52848;SDS011;38714;53.180;5.812;2023-02-28T16:29:31;6.85;;;5.35;;
52848;SDS011;38714;53.180;5.812;2023-02-28T16:31:59;13.85;;;6.25;;
52848;SDS011;38714;53.180;5.812;2023-02-28T16:34:25;8.23;;;5.35;;
52848;SDS011;38714;53.180;5.812;2023-02-28T16:36:51;6.80;;;4.85;;
52848;SDS011;38714;53.180;5.812;2023-02-28T16:39:16;12.48;;;5.30;;
52848;SDS011;38714;53.180;5.812;2023-02-28T16:41:45;7.57;;;4.90;;
52848;SDS011;38714;53.180;5.812;2023-02-28T16:44:13;4.97;;;4.00;;
52848;SDS011;38714;53.180;5.812;2023-02-28T16:46:46;6.50;;;4.68;;
52848;SDS011;38714;53.180;5.812;2023-02-28T16:49:12;5.13;;;4.53;;
52848;SDS011;38714;53.180;5.812;2023-02-28T16:51:38;6.70;;;5.25;;
52848;SDS011;38714;53.180;5.812;2023-02-28T16:54:03;7.07;;;4.93;;
52848;SDS011;38714;53.180;5.812;2023-02-28T16:56:29;6.32;;;5.45;;
52848;SDS011;38714;53.180;5.812;2023-02-28T16:58:55;5.45;;;4.60;;
52848;SDS011;38714;53.180;5.812;2023-02-28T17:01:25;5.78;;;4.63;;
52848;SDS011;38714;53.180;5.812;2023-02-28T17:03:52;5.80;;;3.45;;
52848;SDS011;38714;53.180;5.812;2023-02-28T17:06:25;8.63;;;5.28;;
52848;SDS011;38714;53.180;5.812;2023-02-28T17:08:55;6.70;;;4.68;;
52848;SDS011;38714;53.180;5.812;2023-02-28T17:11:23;7.00;;;4.47;;